IBE212 PGUM-RJCC
Flight info
| Callsign | IBE212 |
|---|---|
| Flight time | N/A |
| Altitude | 38000 |
| Route | JOMAX DCT VP001 DCT KAQTU DCT CULPS DCT WINZR B586 UKATA/N0474F400 B586 IPRET/N0474F390 B586 SABRI/N0473F400 B586 XAC/N0472F390 Y588 NIKKO Y880 NASNO Y117 JYONA Y11 NAVER |
| Aircraft | A346/H-SDE2E3FGHIJ3J4J5M1RWXY/LB1D1 |
Departure
| Time | 2026-04-22 16:44 |
|---|---|
| Airport | Antonio B. Won Pat International Airport (PGUM) |
Arrival
| Time | N/A |
|---|---|
| Airport | New Chitose Airport (RJCC) |
| Time | Latitude | Longitude | Altitude | Speed | Heading |
|---|---|---|---|---|---|
| 2026-04-22 16:16 | 13.49024 | 144.80290 | 291 ft | 0 kts | 332° |
| 2026-04-22 16:32 | 13.49009 | 144.80298 | 296 ft | 3 kts | 335° |
| 2026-04-22 16:32 | 13.48987 | 144.80308 | 296 ft | 3 kts | 339° |
| 2026-04-22 16:32 | 13.48965 | 144.80316 | 295 ft | 3 kts | 340° |
| 2026-04-22 16:32 | 13.48944 | 144.80325 | 296 ft | 3 kts | 335° |
| 2026-04-22 16:33 | 13.48925 | 144.80336 | 297 ft | 3 kts | 319° |
| 2026-04-22 16:33 | 13.48916 | 144.80346 | 299 ft | 3 kts | 283° |
| 2026-04-22 16:33 | 13.48913 | 144.80340 | 299 ft | 3 kts | 242° |
| 2026-04-22 16:33 | 13.48911 | 144.80338 | 299 ft | 0 kts | 232° |
| 2026-04-22 16:36 | 13.48910 | 144.80337 | 299 ft | 0 kts | 232° |
| 2026-04-22 16:37 | 13.48901 | 144.80325 | 297 ft | 4 kts | 233° |
| 2026-04-22 16:37 | 13.48878 | 144.80289 | 299 ft | 8 kts | 238° |
| 2026-04-22 16:37 | 13.48845 | 144.80222 | 295 ft | 13 kts | 245° |
| 2026-04-22 16:37 | 13.48799 | 144.80120 | 293 ft | 18 kts | 245° |
| 2026-04-22 16:38 | 13.48740 | 144.79992 | 286 ft | 21 kts | 244° |
| 2026-04-22 16:38 | 13.48669 | 144.79840 | 280 ft | 26 kts | 244° |
| 2026-04-22 16:38 | 13.48586 | 144.79661 | 277 ft | 28 kts | 245° |
| 2026-04-22 16:38 | 13.48503 | 144.79472 | 270 ft | 30 kts | 245° |
| 2026-04-22 16:39 | 13.48411 | 144.79270 | 268 ft | 32 kts | 245° |
| 2026-04-22 16:39 | 13.48314 | 144.79056 | 266 ft | 33 kts | 245° |
| 2026-04-22 16:39 | 13.48213 | 144.78837 | 263 ft | 35 kts | 245° |
| 2026-04-22 16:39 | 13.48108 | 144.78608 | 259 ft | 36 kts | 244° |
| 2026-04-22 16:40 | 13.47998 | 144.78366 | 249 ft | 38 kts | 245° |
| 2026-04-22 16:40 | 13.47893 | 144.78157 | 244 ft | 16 kts | 219° |
| 2026-04-22 16:40 | 13.47883 | 144.78150 | 243 ft | 0 kts | 204° |
| 2026-04-22 16:41 | 13.47881 | 144.78149 | 243 ft | 2 kts | 204° |
| 2026-04-22 16:41 | 13.47860 | 144.78144 | 243 ft | 4 kts | 184° |
| 2026-04-22 16:41 | 13.47826 | 144.78156 | 243 ft | 6 kts | 137° |
| 2026-04-22 16:41 | 13.47817 | 144.78196 | 244 ft | 6 kts | 89° |
| 2026-04-22 16:42 | 13.47825 | 144.78242 | 245 ft | 7 kts | 73° |
| 2026-04-22 16:42 | 13.47842 | 144.78284 | 246 ft | 6 kts | 67° |
| 2026-04-22 16:42 | 13.47858 | 144.78321 | 247 ft | 5 kts | 64° |
| 2026-04-22 16:42 | 13.47862 | 144.78330 | 248 ft | 0 kts | 64° |
| 2026-04-22 16:43 | 13.47882 | 144.78372 | 249 ft | 30 kts | 64° |
| 2026-04-22 16:43 | 13.48072 | 144.78788 | 259 ft | 98 kts | 65° |
| 2026-04-22 16:43 | 13.48448 | 144.79611 | 272 ft | 155 kts | 65° |
| 2026-04-22 16:43 | 13.48952 | 144.80733 | 565 ft | 183 kts | 68° |
| 2026-04-22 16:44 | 13.49448 | 144.81976 | 1296 ft | 189 kts | 69° |
| 2026-04-22 16:44 | 13.49911 | 144.83233 | 2195 ft | 184 kts | 68° |
| 2026-04-22 16:44 | 13.50416 | 144.84427 | 2924 ft | 182 kts | 66° |
| 2026-04-22 16:44 | 13.50990 | 144.85609 | 3488 ft | 189 kts | 64° |
| 2026-04-22 16:45 | 13.51657 | 144.86827 | 3910 ft | 202 kts | 61° |
| 2026-04-22 16:45 | 13.52440 | 144.88100 | 4442 ft | 219 kts | 55° |
| 2026-04-22 16:45 | 13.53681 | 144.89129 | 4819 ft | 246 kts | 27° |
| 2026-04-22 16:45 | 13.55356 | 144.89750 | 5260 ft | 264 kts | 22° |
| 2026-04-22 16:46 | 13.57097 | 144.90371 | 5876 ft | 273 kts | 22° |
| 2026-04-22 16:46 | 13.58929 | 144.91018 | 6648 ft | 277 kts | 21° |
| 2026-04-22 16:46 | 13.60738 | 144.91648 | 7384 ft | 280 kts | 21° |
| 2026-04-22 16:46 | 13.62595 | 144.92296 | 8138 ft | 284 kts | 22° |
| 2026-04-22 16:47 | 13.64478 | 144.92962 | 8888 ft | 288 kts | 21° |
| 2026-04-22 16:47 | 13.66392 | 144.93631 | 9642 ft | 292 kts | 21° |
| 2026-04-22 16:47 | 13.67675 | 144.94083 | 10100 ft | 295 kts | 20° |
| 2026-04-22 16:47 | 13.70331 | 144.95009 | 10808 ft | 311 kts | 20° |
| 2026-04-22 16:48 | 13.72432 | 144.95744 | 11124 ft | 328 kts | 20° |
| 2026-04-22 16:48 | 13.74697 | 144.96475 | 11411 ft | 347 kts | 14° |
| 2026-04-22 16:48 | 13.77143 | 144.96892 | 11695 ft | 366 kts | 5° |
| 2026-04-22 16:48 | 13.79749 | 144.96925 | 11976 ft | 383 kts | 359° |
| 2026-04-22 16:49 | 13.82423 | 144.96790 | 12402 ft | 394 kts | 357° |
| 2026-04-22 16:49 | 13.85170 | 144.96627 | 13104 ft | 397 kts | 357° |
| 2026-04-22 16:49 | 13.87936 | 144.96468 | 13844 ft | 399 kts | 356° |
| 2026-04-22 16:49 | 13.90756 | 144.96313 | 14469 ft | 403 kts | 356° |
| 2026-04-22 16:50 | 13.93569 | 144.96165 | 15055 ft | 407 kts | 356° |
| 2026-04-22 16:50 | 13.96410 | 144.95999 | 15649 ft | 410 kts | 354° |
| 2026-04-22 16:50 | 13.99233 | 144.95519 | 16244 ft | 413 kts | 345° |
| 2026-04-22 16:50 | 14.01973 | 144.94617 | 16827 ft | 415 kts | 337° |
| 2026-04-22 16:51 | 14.04596 | 144.93357 | 17403 ft | 418 kts | 332° |
| 2026-04-22 16:51 | 14.07210 | 144.91990 | 17997 ft | 421 kts | 331° |
| 2026-04-22 16:51 | 14.09823 | 144.90602 | 18529 ft | 424 kts | 331° |
| 2026-04-22 16:51 | 14.12452 | 144.89200 | 18973 ft | 428 kts | 332° |
| 2026-04-22 16:52 | 14.15083 | 144.87809 | 19413 ft | 431 kts | 332° |
| 2026-04-22 16:52 | 14.17763 | 144.86400 | 19910 ft | 434 kts | 332° |
| 2026-04-22 16:52 | 14.20465 | 144.84973 | 20372 ft | 437 kts | 332° |
| 2026-04-22 16:52 | 14.23188 | 144.83539 | 20789 ft | 441 kts | 332° |
| 2026-04-22 16:53 | 14.25939 | 144.82093 | 21239 ft | 444 kts | 332° |
| 2026-04-22 16:53 | 14.28701 | 144.80645 | 21743 ft | 446 kts | 332° |
| 2026-04-22 16:53 | 14.31473 | 144.79187 | 22199 ft | 448 kts | 332° |
| 2026-04-22 16:53 | 14.34258 | 144.77717 | 22624 ft | 452 kts | 332° |
| 2026-04-22 16:54 | 14.37071 | 144.76233 | 23004 ft | 456 kts | 332° |
| 2026-04-22 16:54 | 14.39906 | 144.74743 | 23415 ft | 459 kts | 332° |
| 2026-04-22 16:54 | 14.42759 | 144.73239 | 23787 ft | 461 kts | 332° |
| 2026-04-22 16:54 | 14.45596 | 144.71749 | 24154 ft | 463 kts | 331° |
| 2026-04-22 16:55 | 14.48467 | 144.70238 | 24549 ft | 464 kts | 331° |
| 2026-04-22 16:55 | 14.51351 | 144.68716 | 24925 ft | 466 kts | 331° |
| 2026-04-22 16:55 | 14.54243 | 144.67189 | 25305 ft | 468 kts | 331° |
| 2026-04-22 16:55 | 14.57147 | 144.65655 | 25669 ft | 470 kts | 332° |
| 2026-04-22 16:56 | 14.60102 | 144.64090 | 25971 ft | 474 kts | 332° |
| 2026-04-22 16:56 | 14.63046 | 144.62540 | 26323 ft | 476 kts | 332° |
| 2026-04-22 16:56 | 14.66000 | 144.60976 | 26666 ft | 479 kts | 332° |
| 2026-04-22 16:56 | 14.68976 | 144.59406 | 26993 ft | 481 kts | 332° |
| 2026-04-22 16:57 | 14.71965 | 144.57828 | 27373 ft | 482 kts | 331° |
| 2026-04-22 16:57 | 14.74954 | 144.56246 | 27743 ft | 484 kts | 331° |
| 2026-04-22 16:57 | 14.77963 | 144.54655 | 28089 ft | 486 kts | 331° |
| 2026-04-22 16:57 | 14.80986 | 144.53051 | 28413 ft | 489 kts | 332° |
| 2026-04-22 16:58 | 14.82997 | 144.51987 | 28644 ft | 490 kts | 332° |
| 2026-04-22 16:58 | 14.87056 | 144.49840 | 29308 ft | 488 kts | 332° |
| 2026-04-22 16:58 | 14.90035 | 144.48264 | 29870 ft | 486 kts | 332° |
| 2026-04-22 16:58 | 14.93039 | 144.46672 | 30354 ft | 484 kts | 331° |
| 2026-04-22 16:59 | 14.96037 | 144.45081 | 30788 ft | 483 kts | 331° |
| 2026-04-22 16:59 | 14.99024 | 144.43497 | 31223 ft | 482 kts | 331° |
| 2026-04-22 16:59 | 15.02000 | 144.41919 | 31664 ft | 480 kts | 332° |
| 2026-04-22 16:59 | 15.05027 | 144.40434 | 32113 ft | 480 kts | 334° |
| 2026-04-22 17:00 | 15.08118 | 144.39114 | 32582 ft | 479 kts | 337° |
| 2026-04-22 17:00 | 15.14456 | 144.36997 | 33508 ft | 479 kts | 343° |
| 2026-04-22 17:00 | 15.17694 | 144.36198 | 33982 ft | 478 kts | 345° |
| 2026-04-22 17:01 | 15.20942 | 144.35478 | 34396 ft | 477 kts | 346° |
| 2026-04-22 17:01 | 15.24184 | 144.34774 | 34796 ft | 476 kts | 346° |
| 2026-04-22 17:01 | 15.27424 | 144.34071 | 35197 ft | 475 kts | 346° |
| 2026-04-22 17:01 | 15.30651 | 144.33369 | 35590 ft | 474 kts | 346° |
| 2026-04-22 17:02 | 15.33879 | 144.32666 | 35980 ft | 473 kts | 346° |
| 2026-04-22 17:02 | 15.37097 | 144.31964 | 36342 ft | 472 kts | 345° |
| 2026-04-22 17:02 | 15.40315 | 144.31260 | 36675 ft | 473 kts | 345° |
| 2026-04-22 17:02 | 15.43539 | 144.30554 | 36966 ft | 474 kts | 345° |
| 2026-04-22 17:03 | 15.46774 | 144.29846 | 37242 ft | 475 kts | 345° |
| 2026-04-22 17:03 | 15.49971 | 144.29145 | 37500 ft | 476 kts | 345° |
| 2026-04-22 17:03 | 15.53219 | 144.28432 | 37773 ft | 477 kts | 345° |
| 2026-04-22 17:03 | 15.56474 | 144.27717 | 37966 ft | 479 kts | 345° |
| 2026-04-22 17:04 | 15.63008 | 144.26283 | 37968 ft | 480 kts | 345° |
| 2026-04-22 17:04 | 15.69547 | 144.24848 | 37968 ft | 480 kts | 345° |
| 2026-04-22 17:05 | 15.76076 | 144.23416 | 37974 ft | 480 kts | 345° |
| 2026-04-22 17:05 | 15.82616 | 144.21978 | 37977 ft | 480 kts | 345° |
| 2026-04-22 17:06 | 15.88048 | 144.20782 | 37976 ft | 480 kts | 345° |
| 2026-04-22 17:06 | 15.95650 | 144.19109 | 37977 ft | 480 kts | 345° |
| 2026-04-22 17:07 | 16.02182 | 144.17674 | 37977 ft | 480 kts | 345° |
| 2026-04-22 17:07 | 16.07658 | 144.16467 | 37978 ft | 480 kts | 345° |
| 2026-04-22 17:08 | 16.14148 | 144.15035 | 37979 ft | 480 kts | 345° |
| 2026-04-22 17:08 | 16.20694 | 144.13590 | 37978 ft | 480 kts | 345° |
| 2026-04-22 17:09 | 16.27230 | 144.12147 | 37986 ft | 480 kts | 345° |
| 2026-04-22 17:09 | 16.33760 | 144.10706 | 37984 ft | 480 kts | 345° |
| 2026-04-22 17:10 | 16.40291 | 144.09261 | 37984 ft | 479 kts | 345° |
| 2026-04-22 17:10 | 16.46819 | 144.07817 | 37984 ft | 479 kts | 345° |
| 2026-04-22 17:11 | 16.53344 | 144.06372 | 37985 ft | 479 kts | 345° |
| 2026-04-22 17:11 | 16.59872 | 144.04928 | 37985 ft | 479 kts | 344° |
| 2026-04-22 17:12 | 16.66369 | 144.03486 | 37984 ft | 479 kts | 344° |
| 2026-04-22 17:12 | 16.72898 | 144.02037 | 37986 ft | 479 kts | 344° |
| 2026-04-22 17:13 | 16.79434 | 144.00586 | 37985 ft | 479 kts | 344° |
| 2026-04-22 17:13 | 16.85960 | 143.99137 | 37987 ft | 479 kts | 344° |
| 2026-04-22 17:14 | 16.92445 | 143.97691 | 37971 ft | 478 kts | 344° |
| 2026-04-22 17:14 | 16.98989 | 143.96313 | 37983 ft | 479 kts | 344° |
| 2026-04-22 17:15 | 17.05512 | 143.94828 | 37991 ft | 479 kts | 344° |
| 2026-04-22 17:15 | 17.12033 | 143.93345 | 37994 ft | 479 kts | 344° |
| 2026-04-22 17:16 | 17.18546 | 143.91882 | 37994 ft | 479 kts | 344° |
| 2026-04-22 17:16 | 17.25060 | 143.90426 | 37995 ft | 479 kts | 344° |
| 2026-04-22 17:17 | 17.31532 | 143.88980 | 37996 ft | 479 kts | 344° |
| 2026-04-22 17:17 | 17.38062 | 143.87521 | 37998 ft | 479 kts | 344° |
| 2026-04-22 17:18 | 17.44576 | 143.86063 | 37997 ft | 479 kts | 344° |
| 2026-04-22 17:18 | 17.51103 | 143.84601 | 37998 ft | 479 kts | 344° |
| 2026-04-22 17:19 | 17.64111 | 143.81587 | 38005 ft | 478 kts | 343° |
| 2026-04-22 17:20 | 17.77032 | 143.78461 | 38000 ft | 478 kts | 343° |
| 2026-04-22 17:21 | 17.86769 | 143.76110 | 38003 ft | 478 kts | 343° |
| 2026-04-22 17:22 | 17.96489 | 143.73763 | 38005 ft | 477 kts | 343° |
| 2026-04-22 17:23 | 18.06146 | 143.71427 | 38005 ft | 477 kts | 343° |
| 2026-04-22 17:23 | 18.15841 | 143.69080 | 38005 ft | 477 kts | 343° |
| 2026-04-22 17:24 | 18.22314 | 143.67512 | 38005 ft | 477 kts | 343° |
| 2026-04-22 17:24 | 18.28781 | 143.65944 | 38005 ft | 477 kts | 343° |
| 2026-04-22 17:25 | 18.35251 | 143.64374 | 38008 ft | 477 kts | 343° |
| 2026-04-22 17:25 | 18.41679 | 143.62813 | 38018 ft | 477 kts | 342° |
| 2026-04-22 17:26 | 18.48142 | 143.61243 | 38009 ft | 477 kts | 342° |
| 2026-04-22 17:26 | 18.54612 | 143.59669 | 38008 ft | 477 kts | 342° |
| 2026-04-22 17:27 | 18.61076 | 143.58095 | 38011 ft | 476 kts | 342° |
| 2026-04-22 17:27 | 18.67540 | 143.56521 | 38024 ft | 476 kts | 342° |
| 2026-04-22 17:28 | 18.74004 | 143.54945 | 38013 ft | 477 kts | 342° |
| 2026-04-22 17:28 | 18.80474 | 143.53366 | 38011 ft | 477 kts | 342° |
| 2026-04-22 17:29 | 18.86905 | 143.51796 | 38011 ft | 477 kts | 342° |
| 2026-04-22 17:29 | 18.93375 | 143.50215 | 38017 ft | 477 kts | 342° |
| 2026-04-22 17:30 | 18.99836 | 143.48634 | 38014 ft | 476 kts | 342° |
| 2026-04-22 17:30 | 19.06289 | 143.47055 | 38016 ft | 476 kts | 342° |
| 2026-04-22 17:31 | 19.12752 | 143.45472 | 38015 ft | 476 kts | 342° |
| 2026-04-22 17:31 | 19.19204 | 143.43891 | 38027 ft | 476 kts | 342° |
| 2026-04-22 17:32 | 19.25651 | 143.42309 | 38021 ft | 475 kts | 343° |
| 2026-04-22 17:32 | 19.32046 | 143.40739 | 38021 ft | 475 kts | 342° |
| 2026-04-22 17:33 | 19.38478 | 143.39158 | 38021 ft | 475 kts | 342° |
| 2026-04-22 17:33 | 19.44920 | 143.37574 | 38021 ft | 475 kts | 342° |
| 2026-04-22 17:34 | 19.51354 | 143.35990 | 38027 ft | 474 kts | 342° |
| 2026-04-22 17:34 | 19.57784 | 143.34406 | 38022 ft | 474 kts | 342° |
| 2026-04-22 17:35 | 19.64216 | 143.32821 | 38021 ft | 474 kts | 342° |
| 2026-04-22 17:35 | 19.70650 | 143.31233 | 38026 ft | 474 kts | 342° |
| 2026-04-22 17:36 | 19.77071 | 143.29648 | 38028 ft | 473 kts | 342° |
| 2026-04-22 17:36 | 19.83450 | 143.28071 | 38025 ft | 473 kts | 342° |
| 2026-04-22 17:37 | 19.89878 | 143.26481 | 38028 ft | 473 kts | 342° |
| 2026-04-22 17:37 | 19.96301 | 143.24890 | 38036 ft | 473 kts | 343° |
| 2026-04-22 17:38 | 20.02721 | 143.23300 | 38034 ft | 473 kts | 343° |
| 2026-04-22 17:38 | 20.09087 | 143.21721 | 38031 ft | 473 kts | 342° |
| 2026-04-22 17:39 | 20.15497 | 143.20130 | 38029 ft | 473 kts | 343° |
| 2026-04-22 17:40 | 20.25110 | 143.17742 | 38042 ft | 472 kts | 342° |
| 2026-04-22 17:40 | 20.31518 | 143.16148 | 38033 ft | 472 kts | 342° |
| 2026-04-22 17:41 | 20.37921 | 143.14554 | 38031 ft | 472 kts | 342° |
| 2026-04-22 17:41 | 20.44326 | 143.12958 | 38032 ft | 472 kts | 342° |
| 2026-04-22 17:42 | 20.50694 | 143.11371 | 38031 ft | 472 kts | 342° |
| 2026-04-22 17:42 | 20.56059 | 143.10032 | 38041 ft | 472 kts | 342° |
| 2026-04-22 17:43 | 20.63511 | 143.08170 | 38041 ft | 472 kts | 342° |
| 2026-04-22 17:43 | 20.69908 | 143.06570 | 38028 ft | 472 kts | 342° |
| 2026-04-22 17:44 | 20.76310 | 143.04968 | 38032 ft | 473 kts | 342° |
| 2026-04-22 17:44 | 20.82715 | 143.03363 | 38040 ft | 473 kts | 342° |
| 2026-04-22 17:45 | 20.89115 | 143.01757 | 38043 ft | 473 kts | 342° |
| 2026-04-22 17:45 | 20.95523 | 143.00149 | 38032 ft | 473 kts | 342° |
| 2026-04-22 17:46 | 21.01930 | 142.98561 | 38037 ft | 473 kts | 343° |
| 2026-04-22 17:46 | 21.08370 | 142.97078 | 38038 ft | 473 kts | 343° |
| 2026-04-22 17:47 | 21.14774 | 142.95610 | 38040 ft | 473 kts | 343° |
| 2026-04-22 17:47 | 21.21216 | 142.94125 | 38033 ft | 473 kts | 343° |
| 2026-04-22 17:48 | 21.26564 | 142.92886 | 38035 ft | 473 kts | 343° |
| 2026-04-22 17:48 | 21.34084 | 142.91143 | 38038 ft | 473 kts | 343° |
| 2026-04-22 17:49 | 21.40524 | 142.89648 | 38036 ft | 473 kts | 343° |
| 2026-04-22 17:49 | 21.46956 | 142.88153 | 38040 ft | 473 kts | 343° |
| 2026-04-22 17:50 | 21.53340 | 142.86665 | 38045 ft | 472 kts | 344° |
| 2026-04-22 17:50 | 21.59765 | 142.85170 | 38042 ft | 472 kts | 344° |
| 2026-04-22 17:51 | 21.66184 | 142.83674 | 38039 ft | 472 kts | 344° |
| 2026-04-22 17:51 | 21.72619 | 142.82173 | 38060 ft | 472 kts | 344° |
| 2026-04-22 17:52 | 21.79055 | 142.80670 | 38043 ft | 472 kts | 344° |
| 2026-04-22 17:52 | 21.85432 | 142.79179 | 38043 ft | 472 kts | 344° |
| 2026-04-22 17:53 | 21.91857 | 142.77676 | 38049 ft | 472 kts | 344° |
| 2026-04-22 17:53 | 21.98278 | 142.76173 | 38056 ft | 471 kts | 344° |
| 2026-04-22 17:54 | 22.04685 | 142.74671 | 38047 ft | 471 kts | 344° |
| 2026-04-22 17:54 | 22.10002 | 142.73424 | 38051 ft | 471 kts | 344° |
| 2026-04-22 17:55 | 22.16410 | 142.71919 | 38048 ft | 471 kts | 344° |
| 2026-04-22 17:55 | 22.22812 | 142.70415 | 38060 ft | 471 kts | 344° |
| 2026-04-22 17:56 | 22.29215 | 142.68909 | 38046 ft | 470 kts | 344° |
| 2026-04-22 17:56 | 22.35573 | 142.67412 | 38049 ft | 470 kts | 344° |
| 2026-04-22 17:57 | 22.41977 | 142.65902 | 38050 ft | 470 kts | 344° |
| 2026-04-22 17:57 | 22.48370 | 142.64395 | 38059 ft | 470 kts | 344° |
| 2026-04-22 17:58 | 22.54728 | 142.62894 | 38054 ft | 470 kts | 344° |
| 2026-04-22 17:58 | 22.61113 | 142.61384 | 38050 ft | 470 kts | 343° |
| 2026-04-22 17:59 | 22.67502 | 142.59873 | 38046 ft | 470 kts | 343° |
| 2026-04-22 17:59 | 22.73886 | 142.58361 | 38061 ft | 469 kts | 343° |
| 2026-04-22 18:00 | 22.80259 | 142.56850 | 38051 ft | 468 kts | 343° |
| 2026-04-22 18:00 | 22.86630 | 142.55339 | 38051 ft | 468 kts | 343° |
| 2026-04-22 18:01 | 22.92996 | 142.53827 | 38046 ft | 468 kts | 343° |
| 2026-04-22 18:01 | 22.99324 | 142.52321 | 38051 ft | 468 kts | 343° |
| 2026-04-22 18:02 | 23.05683 | 142.50807 | 38054 ft | 467 kts | 343° |
| 2026-04-22 18:02 | 23.12042 | 142.49290 | 38054 ft | 467 kts | 343° |
| 2026-04-22 18:03 | 23.18399 | 142.47774 | 38057 ft | 467 kts | 343° |
| 2026-04-22 18:03 | 23.24755 | 142.46256 | 38054 ft | 467 kts | 343° |
| 2026-04-22 18:04 | 23.31120 | 142.44736 | 38056 ft | 467 kts | 343° |
| 2026-04-22 18:04 | 23.37450 | 142.43222 | 38057 ft | 467 kts | 343° |
| 2026-04-22 18:05 | 23.43807 | 142.41701 | 38067 ft | 467 kts | 343° |
| 2026-04-22 18:05 | 23.50153 | 142.40181 | 38058 ft | 467 kts | 343° |
| 2026-04-22 18:06 | 23.56504 | 142.38658 | 38060 ft | 467 kts | 343° |
| 2026-04-22 18:06 | 23.62854 | 142.37133 | 38060 ft | 467 kts | 343° |
| 2026-04-22 18:07 | 23.69168 | 142.35616 | 38070 ft | 467 kts | 343° |
| 2026-04-22 18:07 | 23.75526 | 142.34087 | 38062 ft | 467 kts | 343° |
| 2026-04-22 18:08 | 23.81883 | 142.32556 | 38061 ft | 467 kts | 343° |
| 2026-04-22 18:08 | 23.88233 | 142.31026 | 38058 ft | 467 kts | 343° |
| 2026-04-22 18:09 | 23.94587 | 142.29493 | 38065 ft | 468 kts | 343° |
| 2026-04-22 18:09 | 24.00904 | 142.27969 | 38057 ft | 468 kts | 343° |
| 2026-04-22 18:10 | 24.07277 | 142.26429 | 38059 ft | 468 kts | 343° |
| 2026-04-22 18:10 | 24.13650 | 142.24886 | 38069 ft | 469 kts | 343° |
| 2026-04-22 18:11 | 24.20014 | 142.23343 | 38066 ft | 468 kts | 343° |
| 2026-04-22 18:11 | 24.26376 | 142.21800 | 38066 ft | 468 kts | 343° |
| 2026-04-22 18:12 | 24.32740 | 142.20256 | 38062 ft | 468 kts | 343° |
| 2026-04-22 18:12 | 24.38031 | 142.18970 | 38076 ft | 468 kts | 343° |
| 2026-04-22 18:13 | 24.45435 | 142.17169 | 38063 ft | 468 kts | 343° |
| 2026-04-22 18:13 | 24.51809 | 142.15617 | 38063 ft | 468 kts | 343° |
| 2026-04-22 18:14 | 24.58176 | 142.14065 | 38062 ft | 468 kts | 343° |
| 2026-04-22 18:14 | 24.64541 | 142.12513 | 38070 ft | 469 kts | 343° |
| 2026-04-22 18:15 | 24.70906 | 142.10958 | 38063 ft | 469 kts | 343° |
| 2026-04-22 18:15 | 24.77273 | 142.09400 | 38063 ft | 469 kts | 343° |
| 2026-04-22 18:16 | 24.83641 | 142.07841 | 38074 ft | 469 kts | 343° |
| 2026-04-22 18:16 | 24.90015 | 142.06279 | 38065 ft | 469 kts | 343° |
| 2026-04-22 18:17 | 24.96383 | 142.04714 | 38066 ft | 469 kts | 343° |
| 2026-04-22 18:17 | 25.02755 | 142.03189 | 38065 ft | 470 kts | 345° |
| 2026-04-22 18:18 | 25.09188 | 142.01868 | 38075 ft | 469 kts | 345° |
| 2026-04-22 18:18 | 25.15567 | 142.00570 | 38067 ft | 469 kts | 345° |
| 2026-04-22 18:19 | 25.21980 | 141.99247 | 38063 ft | 469 kts | 345° |
| 2026-04-22 18:19 | 25.28396 | 141.97916 | 38063 ft | 469 kts | 345° |
| 2026-04-22 18:20 | 25.34814 | 141.96581 | 38068 ft | 469 kts | 345° |
| 2026-04-22 18:20 | 25.41227 | 141.95243 | 38066 ft | 469 kts | 345° |
| 2026-04-22 18:21 | 25.47638 | 141.93904 | 38062 ft | 469 kts | 345° |
| 2026-04-22 18:21 | 25.54056 | 141.92563 | 38066 ft | 469 kts | 345° |
| 2026-04-22 18:22 | 25.60473 | 141.91220 | 38065 ft | 469 kts | 345° |
| 2026-04-22 18:22 | 25.66842 | 141.89886 | 38062 ft | 469 kts | 345° |
| 2026-04-22 18:23 | 25.73258 | 141.88540 | 38062 ft | 469 kts | 345° |
| 2026-04-22 18:23 | 25.79681 | 141.87191 | 38065 ft | 469 kts | 345° |
| 2026-04-22 18:24 | 25.89322 | 141.85164 | 38063 ft | 470 kts | 345° |
| 2026-04-22 18:25 | 25.98964 | 141.83134 | 38076 ft | 470 kts | 345° |
| 2026-04-22 18:25 | 26.05343 | 141.81786 | 38064 ft | 470 kts | 345° |
| 2026-04-22 18:26 | 26.14988 | 141.79750 | 38061 ft | 469 kts | 345° |
| 2026-04-22 18:26 | 26.21405 | 141.78394 | 38077 ft | 469 kts | 345° |
| 2026-04-22 18:27 | 26.27816 | 141.77035 | 38065 ft | 468 kts | 346° |
| 2026-04-22 18:27 | 26.34221 | 141.75680 | 38063 ft | 468 kts | 346° |
| 2026-04-22 18:28 | 26.40634 | 141.74320 | 38063 ft | 468 kts | 346° |
| 2026-04-22 18:28 | 26.47035 | 141.72959 | 38069 ft | 467 kts | 346° |
| 2026-04-22 18:29 | 26.53380 | 141.71610 | 38063 ft | 467 kts | 346° |
| 2026-04-22 18:29 | 26.59764 | 141.70252 | 38063 ft | 466 kts | 346° |
| 2026-04-22 18:30 | 26.69340 | 141.68210 | 38073 ft | 465 kts | 346° |
| 2026-04-22 18:31 | 26.75656 | 141.66862 | 38064 ft | 465 kts | 346° |
| 2026-04-22 18:31 | 26.82004 | 141.65505 | 38062 ft | 464 kts | 346° |